Time;durP1;ratioP1;P1;durP2;ratioP2;P2;SDS_P1;SDS_P2;PMS_P1;PMS_P2;Temp;Humidity;BMP_temperature;BMP_pressure;BME280_temperature;BME280_humidity;BME280_pressure;Samples;Min_cycle;Max_cycle;Signal;HPM_P1;HPM_P2
2024/01/17 00:00:19;;;;;;;9.17;8.17;;;21.40;46.40;;;;;;5051551;28;20521;-65
2024/01/17 00:02:47;;;;;;;9.33;8.30;;;21.40;46.30;;;;;;5052751;28;20474;-64
2024/01/17 00:05:16;;;;;;;9.27;8.37;;;21.40;46.40;;;;;;5048918;28;20449;-64
2024/01/17 00:07:44;;;;;;;9.40;8.60;;;21.40;46.30;;;;;;5047664;28;20479;-64
2024/01/17 00:10:14;;;;;;;9.30;7.77;;;21.40;46.30;;;;;;5048143;28;20452;-64
2024/01/17 00:12:42;;;;;;;9.70;8.70;;;21.40;46.30;;;;;;5050078;28;20495;-64
2024/01/17 00:15:11;;;;;;;9.80;8.90;;;21.40;46.30;;;;;;5049025;28;20452;-64
2024/01/17 00:17:39;;;;;;;8.50;7.70;;;21.40;46.30;;;;;;5048868;28;20456;-64
2024/01/17 00:20:09;;;;;;;8.60;7.40;;;21.30;46.30;;;;;;5042723;28;20837;-64
2024/01/17 00:22:37;;;;;;;9.00;8.13;;;21.30;46.30;;;;;;5052587;28;20457;-64
2024/01/17 00:25:06;;;;;;;11.30;8.30;;;21.30;46.30;;;;;;5052013;28;20467;-64
2024/01/17 00:27:36;;;;;;;8.83;8.00;;;21.30;46.30;;;;;;5053374;28;20535;-64
2024/01/17 00:30:06;;;;;;;8.23;7.53;;;21.30;46.30;;;;;;5052241;28;20445;-64
2024/01/17 00:32:35;;;;;;;9.87;7.77;;;21.30;46.30;;;;;;5052160;28;20849;-64
2024/01/17 00:35:03;;;;;;;9.97;9.07;;;21.30;46.30;;;;;;5052177;28;20486;-64
2024/01/17 00:37:32;;;;;;;9.13;8.17;;;21.30;46.30;;;;;;5050007;28;20855;-64
2024/01/17 00:40:00;;;;;;;8.43;7.53;;;21.20;46.30;;;;;;5052695;28;20468;-63
2024/01/17 00:42:29;;;;;;;8.10;7.40;;;21.20;46.30;;;;;;5051219;28;21735;-64
2024/01/17 00:44:58;;;;;;;8.50;7.70;;;21.20;46.30;;;;;;5052405;28;20456;-64
2024/01/17 00:47:27;;;;;;;9.10;8.20;;;21.20;46.30;;;;;;5052214;28;20447;-64
2024/01/17 00:49:55;;;;;;;9.97;8.30;;;21.20;46.30;;;;;;5051152;28;20956;-64
2024/01/17 00:52:25;;;;;;;8.63;7.83;;;21.20;46.30;;;;;;5055992;28;20455;-64
2024/01/17 00:54:53;;;;;;;8.40;7.67;;;21.20;46.30;;;;;;5053931;28;20536;-64
2024/01/17 00:57:21;;;;;;;8.77;7.93;;;21.10;46.30;;;;;;5053039;28;20452;-64
2024/01/17 00:59:49;;;;;;;8.13;7.33;;;21.10;46.30;;;;;;5047465;28;20471;-64
2024/01/17 01:02:19;;;;;;;8.70;7.63;;;21.10;46.30;;;;;;5052271;28;20531;-63
2024/01/17 01:04:47;;;;;;;7.93;7.23;;;21.10;46.40;;;;;;5051022;28;20456;-63
2024/01/17 01:07:16;;;;;;;7.97;7.20;;;21.10;46.40;;;;;;5050009;28;20483;-64
2024/01/17 01:09:45;;;;;;;10.90;7.97;;;21.10;46.40;;;;;;5049782;28;20467;-63
2024/01/17 01:12:13;;;;;;;9.97;9.00;;;21.10;46.40;;;;;;5051758;28;20460;-63
2024/01/17 01:14:41;;;;;;;8.23;7.03;;;21.00;46.40;;;;;;5052002;28;20546;-64
2024/01/17 01:17:10;;;;;;;8.73;7.97;;;21.00;46.40;;;;;;5051776;28;20850;-64
2024/01/17 01:19:40;;;;;;;8.90;8.10;;;21.00;46.40;;;;;;5050651;28;20479;-64
2024/01/17 01:22:08;;;;;;;8.27;7.47;;;21.00;46.50;;;;;;5051183;28;20451;-64
2024/01/17 01:24:36;;;;;;;8.33;7.50;;;21.00;46.50;;;;;;5049708;28;20520;-64
2024/01/17 01:27:05;;;;;;;7.30;6.60;;;21.00;46.50;;;;;;5051302;28;20486;-63
2024/01/17 01:29:33;;;;;;;8.90;8.00;;;21.00;46.50;;;;;;5051560;28;20443;-64
2024/01/17 01:32:02;;;;;;;7.67;6.97;;;21.00;46.50;;;;;;5051620;28;20462;-63
2024/01/17 01:34:30;;;;;;;8.23;7.43;;;20.90;46.50;;;;;;5050398;28;20474;-63
2024/01/17 01:37:00;;;;;;;7.50;6.77;;;21.00;46.50;;;;;;5050402;28;20443;-64
2024/01/17 01:39:28;;;;;;;7.50;6.73;;;20.90;46.50;;;;;;5048219;28;20874;-64
2024/01/17 01:41:56;;;;;;;8.07;7.27;;;20.90;46.50;;;;;;5053713;28;20450;-64
2024/01/17 01:44:25;;;;;;;7.77;6.97;;;20.90;46.50;;;;;;5053176;28;20460;-63
2024/01/17 01:46:54;;;;;;;12.73;7.57;;;20.90;46.50;;;;;;5051052;28;20481;-64
2024/01/17 01:49:23;;;;;;;7.10;6.43;;;20.90;46.60;;;;;;5050780;28;20436;-64
2024/01/17 01:51:52;;;;;;;7.90;6.47;;;20.90;46.60;;;;;;5047645;28;20446;-65
2024/01/17 01:54:23;;;;;;;6.63;6.03;;;20.90;46.50;;;;;;5049526;28;20467;-64
2024/01/17 01:56:54;;;;;;;8.13;6.97;;;20.90;46.50;;;;;;5051772;28;20451;-63
2024/01/17 01:59:23;;;;;;;8.33;7.53;;;20.90;46.50;;;;;;5045921;28;20517;-64
2024/01/17 02:01:51;;;;;;;7.00;6.40;;;20.90;46.50;;;;;;5051193;28;20487;-63
2024/01/17 02:04:20;;;;;;;7.53;6.83;;;20.90;46.50;;;;;;5049946;28;20455;-63
2024/01/17 02:06:50;;;;;;;7.97;7.17;;;20.80;46.50;;;;;;5050880;28;20978;-64
2024/01/17 02:09:18;;;;;;;8.30;7.50;;;20.80;46.50;;;;;;5050018;28;20842;-64
2024/01/17 02:11:48;;;;;;;8.47;7.17;;;20.80;46.50;;;;;;5049200;28;20550;-64
2024/01/17 02:14:19;;;;;;;7.97;7.27;;;20.80;46.50;;;;;;5050733;28;20458;-64
2024/01/17 02:16:48;;;;;;;8.47;6.47;;;20.80;46.50;;;;;;5051771;28;20458;-63
2024/01/17 02:19:17;;;;;;;8.37;7.50;;;20.80;46.50;;;;;;5077728;28;20532;-64
2024/01/17 02:21:45;;;;;;;8.30;7.50;;;20.80;46.60;;;;;;5051097;28;20475;-63
2024/01/17 02:24:16;;;;;;;7.13;6.30;;;20.80;46.50;;;;;;5050664;28;20549;-64
2024/01/17 02:26:44;;;;;;;7.97;7.17;;;20.70;46.50;;;;;;5052505;28;20462;-63
2024/01/17 02:29:12;;;;;;;8.27;7.13;;;20.70;46.50;;;;;;5041068;28;20451;-64
2024/01/17 02:31:41;;;;;;;8.37;7.07;;;20.70;46.50;;;;;;5054634;28;20754;-64
2024/01/17 02:34:10;;;;;;;7.93;6.77;;;20.70;46.50;;;;;;5048558;28;20542;-64
2024/01/17 02:36:38;;;;;;;9.97;7.90;;;20.70;46.60;;;;;;5050316;28;20466;-64
2024/01/17 02:39:06;;;;;;;7.23;6.70;;;20.70;46.60;;;;;;5049958;28;20459;-64
2024/01/17 02:41:36;;;;;;;7.40;6.73;;;20.70;46.70;;;;;;5050369;28;20463;-64
2024/01/17 02:44:04;;;;;;;9.73;7.50;;;20.70;46.60;;;;;;5046586;28;20880;-64
2024/01/17 02:46:32;;;;;;;7.63;6.93;;;20.70;46.70;;;;;;5047423;28;20498;-64
2024/01/17 02:49:01;;;;;;;7.60;6.90;;;20.70;46.70;;;;;;5048656;28;20456;-64
2024/01/17 02:51:29;;;;;;;7.70;7.00;;;20.70;46.70;;;;;;5050435;28;20439;-63
2024/01/17 02:53:57;;;;;;;7.27;6.67;;;20.70;46.60;;;;;;5049958;28;20800;-64
2024/01/17 02:56:26;;;;;;;7.80;7.00;;;20.70;46.60;;;;;;5049841;28;20554;-64
2024/01/17 02:58:55;;;;;;;8.10;7.10;;;20.60;46.60;;;;;;5048293;28;20458;-64
2024/01/17 03:01:23;;;;;;;8.50;7.70;;;20.60;46.60;;;;;;5044954;28;20509;-64
2024/01/17 03:03:52;;;;;;;7.20;6.50;;;20.60;46.60;;;;;;5045780;28;20479;-64
2024/01/17 03:06:20;;;;;;;7.57;6.40;;;20.60;46.60;;;;;;5050362;28;20431;-63
2024/01/17 03:08:48;;;;;;;7.77;6.97;;;20.60;46.60;;;;;;5049916;28;20871;-64
2024/01/17 03:11:16;;;;;;;8.00;7.20;;;20.60;46.60;;;;;;5049561;28;20447;-63
2024/01/17 03:13:45;;;;;;;7.10;6.43;;;20.60;46.60;;;;;;5050132;28;20483;-63
2024/01/17 03:16:18;;;;;;;6.63;6.10;;;20.60;46.60;;;;;;5050505;28;20451;-63
2024/01/17 03:18:47;;;;;;;8.30;6.83;;;20.60;46.60;;;;;;5048153;28;20447;-64
2024/01/17 03:21:15;;;;;;;7.80;7.00;;;20.60;46.60;;;;;;5052958;28;20468;-64
2024/01/17 03:23:44;;;;;;;7.60;6.90;;;20.60;46.60;;;;;;5052560;28;20463;-63
2024/01/17 03:26:12;;;;;;;7.27;6.67;;;20.60;46.60;;;;;;5049590;28;20550;-64
2024/01/17 03:28:43;;;;;;;8.13;7.30;;;20.60;46.60;;;;;;5050224;28;20490;-63
2024/01/17 03:31:11;;;;;;;6.77;6.23;;;20.50;46.60;;;;;;5051426;28;20455;-63
2024/01/17 03:33:40;;;;;;;8.10;7.27;;;20.50;46.60;;;;;;5049602;28;20479;-64
2024/01/17 03:36:09;;;;;;;7.40;6.80;;;20.50;46.60;;;;;;5048841;28;20455;-64
2024/01/17 03:38:37;;;;;;;8.10;7.23;;;20.50;46.60;;;;;;5048476;28;20457;-64
2024/01/17 03:41:08;;;;;;;6.90;6.20;;;20.50;46.60;;;;;;5049082;28;20506;-63
2024/01/17 03:43:36;;;;;;;7.30;6.70;;;20.50;46.60;;;;;;5050749;28;20431;-64
2024/01/17 03:46:05;;;;;;;7.73;6.87;;;20.50;46.60;;;;;;5048833;28;20875;-63
2024/01/17 03:48:33;;;;;;;7.00;6.30;;;20.50;46.60;;;;;;5049946;28;20446;-64
2024/01/17 03:51:03;;;;;;;8.00;7.30;;;20.50;46.60;;;;;;5046908;28;20512;-63
2024/01/17 03:53:32;;;;;;;7.50;6.80;;;20.50;46.60;;;;;;5052955;28;20511;-63
2024/01/17 03:56:00;;;;;;;7.80;7.00;;;20.50;46.70;;;;;;5051767;28;20987;-63
2024/01/17 03:58:28;;;;;;;7.10;6.50;;;20.50;46.70;;;;;;5055161;28;20466;-63
2024/01/17 04:01:01;;;;;;;9.17;7.67;;;20.40;46.70;;;;;;5045379;28;21184;-63
2024/01/17 04:03:29;;;;;;;7.13;6.43;;;20.40;46.70;;;;;;5057840;28;20500;-63
2024/01/17 04:05:57;;;;;;;7.53;6.73;;;20.40;46.70;;;;;;5051954;28;20447;-63
2024/01/17 04:08:27;;;;;;;7.57;6.80;;;20.40;46.70;;;;;;5053269;28;20816;-64
2024/01/17 04:10:56;;;;;;;7.30;6.60;;;20.40;46.70;;;;;;5053776;28;20463;-64
2024/01/17 04:13:24;;;;;;;6.93;6.33;;;20.40;46.70;;;;;;5051658;28;20905;-64
2024/01/17 04:15:52;;;;;;;6.77;6.17;;;20.40;46.80;;;;;;5054005;28;20504;-64
2024/01/17 04:18:20;;;;;;;6.43;5.83;;;20.40;46.90;;;;;;5051682;28;20443;-64
2024/01/17 04:20:49;;;;;;;7.40;6.70;;;20.40;46.80;;;;;;5051606;28;20451;-64
2024/01/17 04:23:18;;;;;;;6.40;5.83;;;20.40;46.90;;;;;;5053515;28;20516;-64
2024/01/17 04:25:47;;;;;;;8.67;6.03;;;20.40;46.80;;;;;;5051990;28;20520;-63
2024/01/17 04:28:17;;;;;;;6.93;6.23;;;20.40;46.80;;;;;;5053267;28;20482;-63
2024/01/17 04:30:46;;;;;;;6.93;6.33;;;20.40;46.70;;;;;;5051856;28;20454;-64
2024/01/17 04:33:14;;;;;;;6.53;5.93;;;20.40;46.60;;;;;;5053002;28;21394;-64
2024/01/17 04:35:43;;;;;;;6.57;5.97;;;20.50;46.50;;;;;;5052471;28;20534;-63
2024/01/17 04:38:11;;;;;;;7.97;6.40;;;20.50;46.40;;;;;;5052621;28;20447;-64
2024/01/17 04:40:39;;;;;;;7.13;6.53;;;20.60;46.40;;;;;;5049579;28;20486;-64
2024/01/17 04:43:09;;;;;;;9.00;8.13;;;20.60;46.30;;;;;;5051668;28;20451;-63
2024/01/17 04:45:37;;;;;;;6.43;5.93;;;20.60;46.30;;;;;;5053036;28;20586;-64
2024/01/17 04:48:07;;;;;;;6.40;5.80;;;20.60;46.30;;;;;;5056691;28;20550;-64
2024/01/17 04:50:36;;;;;;;6.97;6.37;;;20.60;46.30;;;;;;5051692;28;20485;-64
2024/01/17 04:53:04;;;;;;;7.00;6.07;;;20.70;46.30;;;;;;5051418;28;20464;-64
2024/01/17 04:55:33;;;;;;;6.67;6.07;;;20.70;46.30;;;;;;5052714;28;20439;-64
2024/01/17 04:58:01;;;;;;;7.30;6.60;;;20.70;46.20;;;;;;5052641;28;20491;-64
2024/01/17 05:00:31;;;;;;;6.67;6.10;;;20.70;46.20;;;;;;5048686;28;20550;-63
2024/01/17 05:02:59;;;;;;;7.80;6.20;;;20.70;46.20;;;;;;5045047;28;20573;-64
2024/01/17 05:05:27;;;;;;;6.70;6.10;;;20.80;46.20;;;;;;5051637;28;20852;-64
2024/01/17 05:07:56;;;;;;;6.10;5.60;;;20.80;46.10;;;;;;5050282;28;20493;-64
2024/01/17 05:10:24;;;;;;;8.60;6.50;;;20.80;46.20;;;;;;5051101;28;20451;-64
2024/01/17 05:12:52;;;;;;;6.10;5.70;;;20.90;46.20;;;;;;5049693;28;20504;-64
2024/01/17 05:15:20;;;;;;;6.70;6.20;;;20.90;46.20;;;;;;5049582;28;20452;-64
2024/01/17 05:17:50;;;;;;;6.50;5.90;;;20.90;46.20;;;;;;5048708;28;20448;-64
2024/01/17 05:20:18;;;;;;;6.70;6.10;;;20.90;46.20;;;;;;5048013;28;20455;-64
2024/01/17 05:22:47;;;;;;;6.90;6.30;;;20.90;46.20;;;;;;5056176;28;20574;-64
2024/01/17 05:25:15;;;;;;;8.63;7.20;;;21.00;46.20;;;;;;5050808;28;20455;-64
2024/01/17 05:27:50;;;;;;;5.20;4.80;;;21.00;46.10;;;;;;5052851;28;20518;-64
2024/01/17 05:30:18;;;;;;;6.33;5.87;;;21.00;46.10;;;;;;5047482;28;21016;-64
2024/01/17 05:32:47;;;;;;;7.20;6.60;;;21.00;46.10;;;;;;5054850;28;20481;-64
2024/01/17 05:35:17;;;;;;;6.40;5.90;;;21.10;46.10;;;;;;5051189;28;20464;-64
2024/01/17 05:37:46;;;;;;;6.07;5.47;;;21.10;46.00;;;;;;5050207;28;20460;-64
2024/01/17 05:40:15;;;;;;;6.30;5.70;;;21.10;46.00;;;;;;5050482;28;20537;-64
2024/01/17 05:42:46;;;;;;;6.30;5.80;;;21.10;46.00;;;;;;5052551;28;20477;-63
2024/01/17 05:45:14;;;;;;;6.07;5.57;;;21.10;46.00;;;;;;5050210;28;20462;-64
2024/01/17 05:47:42;;;;;;;5.70;5.20;;;21.20;46.10;;;;;;5051485;28;20481;-63
2024/01/17 05:50:11;;;;;;;5.67;5.17;;;21.20;46.10;;;;;;5046042;28;20561;-63
2024/01/17 05:52:43;;;;;;;5.53;5.03;;;21.20;46.20;;;;;;5052476;28;20559;-64
2024/01/17 05:55:12;;;;;;;9.97;5.33;;;21.10;46.30;;;;;;5045494;28;20460;-65
2024/01/17 05:57:40;;;;;;;5.60;5.10;;;21.10;46.30;;;;;;5048176;28;20531;-65
2024/01/17 06:00:11;;;;;;;5.73;5.20;;;21.10;46.30;;;;;;5044884;28;20457;-65
2024/01/17 06:02:40;;;;;;;5.00;4.60;;;21.10;46.40;;;;;;5050372;28;20484;-64
2024/01/17 06:05:09;;;;;;;6.53;5.87;;;21.10;46.50;;;;;;5050515;28;20449;-64
2024/01/17 06:07:38;;;;;;;5.83;5.30;;;21.10;46.50;;;;;;5057381;28;20567;-64
2024/01/17 06:10:12;;;;;;;5.70;5.17;;;21.10;46.60;;;;;;5051754;28;20522;-64
2024/01/17 06:12:42;;;;;;;4.77;4.40;;;21.10;46.70;;;;;;5043641;28;20455;-64
2024/01/17 06:15:12;;;;;;;5.73;5.23;;;21.10;46.80;;;;;;5046492;28;20922;-64
2024/01/17 06:17:40;;;;;;;5.50;5.00;;;21.10;46.90;;;;;;5044696;28;20545;-64
2024/01/17 06:20:11;;;;;;;5.47;4.97;;;21.10;47.00;;;;;;5043710;28;20544;-65
2024/01/17 06:22:40;;;;;;;6.13;5.53;;;21.10;47.10;;;;;;5037755;28;20475;-64
2024/01/17 06:25:10;;;;;;;5.13;4.60;;;21.10;47.10;;;;;;5038718;28;20463;-64
2024/01/17 06:27:38;;;;;;;9.07;4.93;;;21.10;47.20;;;;;;5038866;28;20456;-65
2024/01/17 06:30:09;;;;;;;5.53;5.03;;;21.10;47.10;;;;;;5041068;28;20452;-65
2024/01/17 06:32:37;;;;;;;5.13;4.63;;;21.10;47.10;;;;;;5041402;28;20535;-65
2024/01/17 06:35:06;;;;;;;6.07;5.57;;;21.20;47.10;;;;;;5039900;28;20462;-65
2024/01/17 06:37:34;;;;;;;4.60;4.20;;;21.20;47.00;;;;;;5037205;28;20461;-64
2024/01/17 06:40:04;;;;;;;5.63;5.13;;;21.20;47.00;;;;;;5042049;28;20995;-65
2024/01/17 06:42:33;;;;;;;6.30;5.67;;;21.20;47.00;;;;;;5040052;28;20475;-64
2024/01/17 06:45:02;;;;;;;5.43;4.93;;;21.20;47.00;;;;;;5041201;28;20476;-64
2024/01/17 06:47:30;;;;;;;6.00;5.40;;;21.20;47.00;;;;;;5040407;28;20461;-65
2024/01/17 06:49:58;;;;;;;5.30;4.80;;;21.20;47.00;;;;;;5048099;28;20481;-65
2024/01/17 06:52:26;;;;;;;5.03;4.60;;;21.20;47.00;;;;;;5050543;28;20437;-65
2024/01/17 06:54:55;;;;;;;5.70;5.17;;;21.20;46.90;;;;;;5050463;28;20545;-65
2024/01/17 06:57:23;;;;;;;6.10;4.97;;;21.20;46.90;;;;;;5049234;28;20844;-65
2024/01/17 06:59:52;;;;;;;5.27;4.70;;;21.20;47.00;;;;;;5047633;28;20469;-65
2024/01/17 07:02:21;;;;;;;6.23;4.70;;;21.20;47.00;;;;;;5046804;28;20479;-65
2024/01/17 07:04:49;;;;;;;6.00;5.10;;;21.20;47.00;;;;;;5042873;28;20532;-65
2024/01/17 07:07:17;;;;;;;5.10;4.60;;;21.20;47.10;;;;;;5043247;28;20496;-64
2024/01/17 07:09:45;;;;;;;5.97;5.47;;;21.20;47.10;;;;;;5045485;28;20466;-66
2024/01/17 07:12:13;;;;;;;6.20;5.40;;;21.20;47.20;;;;;;5047948;28;20458;-66
2024/01/17 07:14:43;;;;;;;9.70;6.27;;;21.20;47.30;;;;;;5050070;28;20454;-66
2024/01/17 07:17:12;;;;;;;6.90;4.67;;;21.20;47.50;;;;;;5048312;28;20457;-66
2024/01/17 07:19:40;;;;;;;10.03;6.00;;;21.20;47.70;;;;;;5044053;28;20472;-66
2024/01/17 07:22:09;;;;;;;8.60;6.37;;;21.20;47.90;;;;;;5046602;28;20460;-66
2024/01/17 07:24:37;;;;;;;8.70;6.27;;;21.20;48.00;;;;;;5049834;28;20437;-65
2024/01/17 07:27:06;;;;;;;11.57;6.83;;;21.20;48.20;;;;;;5052460;28;20442;-66
2024/01/17 07:29:35;;;;;;;13.27;5.80;;;21.20;48.30;;;;;;5051472;28;20543;-66
2024/01/17 07:32:03;;;;;;;8.40;6.20;;;21.20;48.40;;;;;;5049994;28;20449;-68
2024/01/17 07:34:33;;;;;;;10.20;6.23;;;21.20;48.40;;;;;;5053081;28;20472;-68
2024/01/17 07:37:02;;;;;;;11.33;7.20;;;21.30;48.50;;;;;;5054000;28;21192;-68
2024/01/17 07:39:30;;;;;;;7.20;5.60;;;21.20;48.50;;;;;;5053574;28;20516;-68
2024/01/17 07:41:59;;;;;;;10.60;5.37;;;21.20;48.50;;;;;;5051172;28;20456;-68
2024/01/17 07:44:29;;;;;;;8.70;7.20;;;21.20;48.50;;;;;;5053870;28;20472;-68
2024/01/17 07:46:58;;;;;;;9.13;6.07;;;21.20;48.50;;;;;;5053617;28;20460;-68
2024/01/17 07:49:26;;;;;;;8.37;5.40;;;21.20;48.50;;;;;;5052812;28;20444;-68
2024/01/17 07:51:56;;;;;;;5.90;5.30;;;21.20;48.50;;;;;;5054539;28;20521;-68
2024/01/17 07:54:24;;;;;;;9.10;6.07;;;21.20;48.60;;;;;;5053504;28;20855;-68
2024/01/17 07:56:53;;;;;;;7.63;5.17;;;21.20;48.60;;;;;;5052760;28;20798;-68
2024/01/17 07:59:21;;;;;;;8.77;6.07;;;21.20;48.60;;;;;;5047444;28;20480;-68
2024/01/17 08:01:50;;;;;;;9.00;5.67;;;21.30;48.60;;;;;;5050206;28;20939;-68
2024/01/17 08:04:18;;;;;;;6.73;5.77;;;21.30;48.70;;;;;;5053008;28;20525;-68
2024/01/17 08:06:47;;;;;;;8.17;5.10;;;21.30;48.70;;;;;;5053372;28;20482;-69
2024/01/17 08:09:21;;;;;;;7.40;5.37;;;21.30;48.80;;;;;;5052931;28;20440;-68
2024/01/17 08:11:51;;;;;;;7.57;5.20;;;21.30;48.90;;;;;;5053615;28;20533;-68
2024/01/17 08:14:20;;;;;;;5.80;4.83;;;21.30;48.90;;;;;;5053528;28;20447;-68
2024/01/17 08:16:49;;;;;;;6.23;5.50;;;21.30;49.00;;;;;;5052999;28;20481;-68
2024/01/17 08:19:17;;;;;;;7.27;4.97;;;21.30;49.00;;;;;;5048809;28;20937;-68
2024/01/17 08:21:47;;;;;;;6.53;5.00;;;21.30;49.00;;;;;;5053598;28;20889;-68
2024/01/17 08:24:16;;;;;;;4.67;4.17;;;21.30;49.10;;;;;;5052545;28;20833;-68
2024/01/17 08:26:45;;;;;;;7.03;5.50;;;21.30;49.10;;;;;;5054323;28;20531;-68
2024/01/17 08:29:16;;;;;;;5.03;4.53;;;21.30;49.10;;;;;;5046786;28;20470;-69
2024/01/17 08:31:45;;;;;;;8.27;4.90;;;21.30;49.10;;;;;;5046055;28;20893;-69
2024/01/17 08:34:13;;;;;;;5.37;4.87;;;21.30;49.20;;;;;;5052651;28;20452;-69
2024/01/17 08:36:42;;;;;;;5.50;4.70;;;21.30;49.10;;;;;;5052022;28;20454;-69
2024/01/17 08:39:11;;;;;;;7.83;4.50;;;21.30;49.00;;;;;;5051866;28;20455;-69
2024/01/17 08:41:45;;;;;;;6.20;4.80;;;21.30;48.80;;;;;;5052558;28;20467;-69
2024/01/17 08:44:14;;;;;;;5.67;4.60;;;21.30;48.70;;;;;;5052503;28;20523;-69
2024/01/17 08:46:44;;;;;;;6.13;4.70;;;21.30;48.60;;;;;;5050383;28;20445;-69
2024/01/17 08:49:14;;;;;;;7.47;5.10;;;21.30;48.50;;;;;;5051922;28;20444;-69
2024/01/17 08:51:43;;;;;;;4.93;4.33;;;21.30;48.40;;;;;;5052375;28;20509;-69
2024/01/17 08:54:11;;;;;;;5.30;4.33;;;21.30;48.40;;;;;;5052556;28;20507;-69
2024/01/17 08:56:41;;;;;;;6.30;4.87;;;21.30;48.40;;;;;;5048491;28;20531;-69
2024/01/17 08:59:09;;;;;;;6.80;4.97;;;21.30;48.30;;;;;;5051631;28;20504;-69
2024/01/17 09:01:38;;;;;;;5.60;5.17;;;21.30;48.30;;;;;;5052979;28;20437;-69
2024/01/17 09:04:07;;;;;;;5.63;5.13;;;21.30;48.20;;;;;;5051099;28;20477;-69
2024/01/17 09:06:35;;;;;;;5.43;4.23;;;21.30;48.20;;;;;;5048252;28;20443;-69
2024/01/17 09:09:04;;;;;;;4.47;4.07;;;21.40;48.20;;;;;;5050961;28;20434;-69
2024/01/17 09:11:33;;;;;;;5.00;4.50;;;21.30;48.10;;;;;;5052148;28;20462;-69
2024/01/17 09:14:02;;;;;;;4.90;4.10;;;21.40;48.10;;;;;;5052043;28;20441;-69
2024/01/17 09:16:31;;;;;;;5.43;4.93;;;21.40;48.10;;;;;;5051040;28;20450;-69
2024/01/17 09:18:59;;;;;;;5.80;4.87;;;21.40;48.00;;;;;;5052066;28;20636;-69
2024/01/17 09:21:28;;;;;;;4.30;3.90;;;21.40;47.90;;;;;;5051375;28;20782;-69
2024/01/17 09:23:57;;;;;;;4.27;3.30;;;21.40;47.90;;;;;;5052341;28;20478;-69
2024/01/17 09:26:25;;;;;;;7.23;4.53;;;21.40;47.90;;;;;;5049189;28;20469;-69
2024/01/17 09:28:54;;;;;;;4.40;4.00;;;21.40;47.80;;;;;;5051609;28;20441;-69
2024/01/17 09:31:23;;;;;;;4.40;4.00;;;21.40;47.80;;;;;;5050039;28;20797;-69
2024/01/17 09:33:52;;;;;;;4.27;3.97;;;21.40;47.80;;;;;;5051099;28;20457;-69
2024/01/17 09:36:20;;;;;;;4.90;4.50;;;21.40;47.80;;;;;;5051659;28;20920;-69
2024/01/17 09:38:49;;;;;;;6.23;4.70;;;21.40;47.80;;;;;;5051884;28;20476;-69
2024/01/17 09:41:17;;;;;;;5.03;4.10;;;21.40;47.80;;;;;;5046615;28;20464;-69
2024/01/17 09:43:46;;;;;;;4.60;4.20;;;21.40;47.80;;;;;;5046518;28;20451;-69
2024/01/17 09:46:15;;;;;;;4.70;4.13;;;21.30;47.80;;;;;;5049095;28;20458;-69
2024/01/17 09:48:45;;;;;;;4.13;3.83;;;21.30;47.80;;;;;;5047978;28;20453;-70
2024/01/17 09:51:17;;;;;;;5.40;4.53;;;21.30;47.80;;;;;;5046645;28;20519;-70
2024/01/17 09:53:47;;;;;;;4.70;4.30;;;21.30;47.90;;;;;;5050746;28;20975;-70
2024/01/17 09:56:18;;;;;;;5.27;4.30;;;21.30;48.10;;;;;;5051724;28;20930;-70
2024/01/17 09:58:50;;;;;;;4.80;4.40;;;21.40;48.20;;;;;;5050244;28;20465;-70
2024/01/17 10:01:21;;;;;;;4.50;4.20;;;21.40;48.20;;;;;;5050208;28;20461;-70
2024/01/17 10:03:55;;;;;;;4.53;4.13;;;21.40;48.20;;;;;;5050878;28;20437;-70
2024/01/17 10:06:26;;;;;;;4.30;4.00;;;21.40;48.20;;;;;;5051184;28;20475;-70
2024/01/17 10:08:55;;;;;;;4.93;4.13;;;21.40;48.20;;;;;;5051386;28;20473;-70
2024/01/17 10:11:24;;;;;;;4.27;3.87;;;21.40;48.10;;;;;;5051149;28;20463;-70
2024/01/17 10:13:52;;;;;;;5.13;4.63;;;21.50;48.10;;;;;;5047821;28;20487;-69
2024/01/17 10:16:23;;;;;;;4.93;4.37;;;21.50;48.10;;;;;;5051221;28;20511;-70
2024/01/17 10:18:52;;;;;;;5.93;4.63;;;21.50;48.10;;;;;;5048813;28;20457;-70
2024/01/17 10:21:21;;;;;;;4.00;3.70;;;21.60;48.00;;;;;;5044209;28;20461;-70
2024/01/17 10:23:49;;;;;;;4.37;3.93;;;21.60;48.00;;;;;;5044396;28;20593;-70
2024/01/17 10:26:18;;;;;;;3.83;3.63;;;21.60;48.00;;;;;;5046703;28;20544;-70
2024/01/17 10:28:46;;;;;;;5.20;4.23;;;21.60;47.90;;;;;;5048372;28;20442;-70
2024/01/17 10:31:15;;;;;;;5.73;5.33;;;21.60;47.90;;;;;;5050708;28;20530;-70
2024/01/17 10:33:45;;;;;;;4.67;4.27;;;21.60;47.80;;;;;;5047568;28;20438;-70
2024/01/17 10:36:15;;;;;;;4.63;3.93;;;21.60;47.80;;;;;;5046435;28;20519;-70
2024/01/17 10:38:43;;;;;;;4.93;4.30;;;21.60;47.80;;;;;;5048497;28;20454;-71
2024/01/17 10:41:14;;;;;;;4.60;4.20;;;21.60;47.80;;;;;;5049822;28;20444;-70
2024/01/17 10:43:54;;;;;;;4.03;3.73;;;21.60;47.80;;;;;;5048943;28;20524;-70
2024/01/17 10:46:23;;;;;;;3.73;3.43;;;21.60;47.80;;;;;;5050480;28;20509;-70
2024/01/17 10:48:51;;;;;;;3.87;3.57;;;21.60;47.80;;;;;;5046014;28;20449;-70
2024/01/17 10:51:23;;;;;;;4.83;3.93;;;21.60;47.80;;;;;;5050277;28;20464;-70
2024/01/17 10:53:54;;;;;;;4.00;3.57;;;21.60;47.80;;;;;;5050110;28;20442;-69
2024/01/17 10:56:27;;;;;;;3.90;3.60;;;21.50;47.90;;;;;;5050169;28;20441;-70
2024/01/17 10:58:56;;;;;;;3.97;3.60;;;21.50;47.90;;;;;;5050555;28;20798;-70
2024/01/17 11:01:26;;;;;;;4.77;3.97;;;21.50;48.00;;;;;;5049697;28;20453;-70
2024/01/17 11:03:58;;;;;;;4.80;4.20;;;21.50;48.00;;;;;;5049709;28;20525;-70
2024/01/17 11:06:27;;;;;;;3.70;3.40;;;21.50;48.00;;;;;;5049325;28;20966;-70
2024/01/17 11:08:58;;;;;;;4.30;3.90;;;21.40;48.10;;;;;;5050971;28;20449;-70
2024/01/17 11:11:28;;;;;;;4.27;3.97;;;21.40;48.10;;;;;;5050356;28;20441;-70
2024/01/17 11:13:58;;;;;;;5.07;4.23;;;21.40;48.10;;;;;;5050506;28;20875;-70
2024/01/17 11:16:27;;;;;;;4.37;3.97;;;21.50;48.20;;;;;;5049905;28;20459;-70
2024/01/17 11:18:57;;;;;;;4.23;3.83;;;21.50;48.10;;;;;;5049904;28;20452;-70
2024/01/17 11:21:28;;;;;;;4.87;4.47;;;21.50;48.10;;;;;;5049417;28;20516;-70
2024/01/17 11:24:04;;;;;;;5.13;4.73;;;21.50;48.10;;;;;;5049565;28;20446;-70
2024/01/17 11:26:40;;;;;;;4.77;4.37;;;21.60;48.10;;;;;;5042366;28;20995;-70
2024/01/17 11:29:16;;;;;;;6.13;4.33;;;21.60;48.00;;;;;;5046710;28;20529;-70
2024/01/17 11:31:52;;;;;;;4.33;3.90;;;21.60;48.00;;;;;;5048815;28;20549;-70
2024/01/17 11:34:23;;;;;;;4.40;3.80;;;21.60;48.00;;;;;;5048847;28;20437;-70
2024/01/17 11:36:53;;;;;;;5.10;4.70;;;21.70;48.00;;;;;;5050043;28;20466;-70
2024/01/17 11:39:22;;;;;;;4.77;4.37;;;21.70;47.90;;;;;;5044593;28;20450;-70
2024/01/17 11:41:51;;;;;;;4.10;3.80;;;21.70;47.80;;;;;;5040930;28;20477;-70
2024/01/17 11:44:20;;;;;;;4.77;4.30;;;21.70;47.80;;;;;;5037360;28;22424;-68
2024/01/17 11:46:51;;;;;;;3.70;3.40;;;21.70;47.90;;;;;;5045408;28;20482;-62
2024/01/17 11:49:39;;;;;;;4.50;4.20;;;21.70;47.90;;;;;;5044401;28;20451;-62
2024/01/17 11:52:27;;;;;;;4.43;4.00;;;21.70;47.90;;;;;;5044246;28;20895;-63
2024/01/17 11:54:56;;;;;;;5.20;4.17;;;21.70;47.90;;;;;;5051470;28;20544;-62
2024/01/17 11:57:26;;;;;;;4.33;3.93;;;21.70;47.90;;;;;;5050524;28;20449;-62
2024/01/17 12:00:07;;;;;;;4.43;4.03;;;21.70;48.00;;;;;;5040492;28;20841;-62
2024/01/17 12:02:37;;;;;;;4.97;4.40;;;21.60;48.00;;;;;;5036208;28;20464;-62
2024/01/17 12:05:07;;;;;;;4.20;3.90;;;21.60;48.00;;;;;;5042886;28;20506;-62
2024/01/17 12:07:40;;;;;;;4.63;4.23;;;21.60;48.00;;;;;;5050935;28;20497;-62
2024/01/17 12:10:10;;;;;;;5.23;4.80;;;21.60;48.00;;;;;;5047229;28;20455;-63
2024/01/17 12:12:40;;;;;;;4.80;4.40;;;21.60;48.10;;;;;;5049084;28;20446;-62
2024/01/17 12:15:10;;;;;;;5.17;4.67;;;21.60;48.10;;;;;;5056238;28;20445;-62
2024/01/17 12:17:40;;;;;;;7.33;5.10;;;21.60;48.10;;;;;;5054116;28;20772;-62
2024/01/17 12:20:09;;;;;;;5.53;5.03;;;21.60;48.20;;;;;;5047261;28;20994;-61
2024/01/17 12:22:39;;;;;;;4.80;4.40;;;21.60;48.20;;;;;;5051543;28;21024;-62
2024/01/17 12:25:09;;;;;;;5.33;4.83;;;21.60;48.30;;;;;;5058407;28;20440;-62
2024/01/17 12:27:37;;;;;;;5.90;5.40;;;21.60;48.30;;;;;;5052721;28;20460;-62
2024/01/17 12:30:06;;;;;;;5.57;5.17;;;21.60;48.40;;;;;;5053417;28;20449;-62
2024/01/17 12:32:35;;;;;;;5.00;4.60;;;21.60;48.40;;;;;;5050035;28;20965;-63
2024/01/17 12:35:04;;;;;;;5.13;4.73;;;21.60;48.50;;;;;;5050266;28;20446;-62
2024/01/17 12:37:33;;;;;;;5.67;5.17;;;21.60;48.60;;;;;;5052966;28;20520;-62
2024/01/17 12:40:04;;;;;;;5.43;5.00;;;21.60;48.60;;;;;;5053782;28;20459;-62
2024/01/17 12:42:32;;;;;;;5.90;5.40;;;21.60;48.70;;;;;;5052299;28;20448;-62
2024/01/17 12:45:00;;;;;;;5.73;5.23;;;21.60;48.70;;;;;;5049962;28;20756;-61
2024/01/17 12:47:29;;;;;;;5.47;4.87;;;21.60;48.70;;;;;;5049772;28;20984;-62
2024/01/17 12:49:57;;;;;;;5.20;4.67;;;21.60;48.80;;;;;;5060106;28;20451;-62
2024/01/17 12:52:26;;;;;;;5.73;5.13;;;21.60;48.80;;;;;;5051913;28;20465;-63
2024/01/17 12:54:54;;;;;;;5.37;4.80;;;21.60;48.80;;;;;;5053440;28;20463;-62